createdAt,value
2022-11-27T00:08:18.386Z,6.15
2022-11-27T00:18:18.250Z,6.15
2022-11-27T00:28:18.372Z,6.16
2022-11-27T00:38:19.867Z,6.17
2022-11-27T00:48:20.330Z,6.17
2022-11-27T00:58:20.348Z,6.15
2022-11-27T01:08:20.303Z,6.12
2022-11-27T01:18:20.357Z,6.09
2022-11-27T01:28:20.357Z,6.06
2022-11-27T01:38:20.371Z,6.03
2022-11-27T01:48:20.362Z,5.98
2022-11-27T01:58:20.428Z,5.90
2022-11-27T02:08:20.504Z,5.84
2022-11-27T02:18:20.471Z,5.85
2022-11-27T02:28:20.432Z,5.88
2022-11-27T02:38:20.413Z,5.92
2022-11-27T02:48:20.429Z,5.94
2022-11-27T02:58:20.463Z,5.90
2022-11-27T03:08:20.498Z,5.78
2022-11-27T03:18:20.476Z,5.64
2022-11-27T03:28:20.643Z,5.53
2022-11-27T03:38:20.495Z,5.46
2022-11-27T03:48:20.489Z,5.43
2022-11-27T03:58:20.519Z,5.49
2022-11-27T04:08:20.641Z,5.57
2022-11-27T04:18:20.522Z,5.63
2022-11-27T04:28:20.562Z,5.71
2022-11-27T04:38:20.563Z,5.85
2022-11-27T04:48:20.564Z,6.02
2022-11-27T04:58:20.554Z,6.17
2022-11-27T05:08:20.662Z,6.30
2022-11-27T05:18:20.549Z,6.41
2022-11-27T05:28:25.173Z,6.50
2022-11-27T05:38:22.628Z,6.57
2022-11-27T05:48:22.662Z,6.63
2022-11-27T05:58:22.666Z,6.68
2022-11-27T06:08:22.661Z,6.73
2022-11-27T06:18:22.636Z,6.78
2022-11-27T06:28:22.693Z,6.80
2022-11-27T06:38:24.013Z,6.84
2022-11-27T06:48:23.754Z,6.88
2022-11-27T06:58:29.354Z,6.90
2022-11-27T07:08:25.734Z,6.92
2022-11-27T07:18:25.731Z,6.99
2022-11-27T07:28:25.856Z,7.16
2022-11-27T07:38:25.822Z,7.38
2022-11-27T07:48:25.776Z,7.56
2022-11-27T07:58:25.798Z,7.73
2022-11-27T08:08:25.959Z,7.98
2022-11-27T08:18:25.821Z,8.30
2022-11-27T08:28:25.846Z,8.59
2022-11-27T08:38:25.834Z,8.92
2022-11-27T08:48:25.859Z,9.39
2022-11-27T08:58:25.874Z,9.90
2022-11-27T09:08:25.881Z,10.19
2022-11-27T09:18:25.930Z,10.31
2022-11-27T09:28:31.128Z,10.45
2022-11-27T09:38:27.895Z,10.61
2022-11-27T09:48:28.008Z,11.02
2022-11-27T09:58:27.916Z,11.56
2022-11-27T10:08:28.122Z,11.98
2022-11-27T10:18:28.002Z,12.29
2022-11-27T10:28:28.034Z,12.53
2022-11-27T10:38:28.202Z,12.74
2022-11-27T10:48:29.198Z,13.03
2022-11-27T10:58:29.023Z,13.25
2022-11-27T11:08:29.658Z,13.26
2022-11-27T11:18:30.426Z,13.09
2022-11-27T11:28:30.848Z,12.92
2022-11-27T11:38:32.053Z,12.83
2022-11-27T11:48:32.126Z,12.79
2022-11-27T11:58:32.072Z,12.68
2022-11-27T12:08:32.081Z,12.46
2022-11-27T12:18:32.196Z,12.28
2022-11-27T12:28:32.095Z,12.28
2022-11-27T12:38:32.266Z,12.35
2022-11-27T12:48:32.242Z,12.39
2022-11-27T12:58:32.319Z,12.46
2022-11-27T13:08:32.354Z,12.60
2022-11-27T13:18:32.306Z,12.74
2022-11-27T13:28:32.317Z,12.79
2022-11-27T13:38:33.717Z,12.73
2022-11-27T13:48:34.249Z,12.63
2022-11-27T13:58:34.316Z,12.51
2022-11-27T14:08:34.567Z,12.37
2022-11-27T14:18:34.328Z,12.19
2022-11-27T14:28:34.264Z,11.98
2022-11-27T14:38:34.322Z,11.71
2022-11-27T14:48:34.348Z,11.38
2022-11-27T14:58:34.368Z,11.05
2022-11-27T15:08:34.469Z,10.84
2022-11-27T15:18:34.518Z,10.71
2022-11-27T15:28:53.841Z,10.57
2022-11-27T15:38:54.533Z,10.38
2022-11-27T15:48:54.470Z,10.16
2022-11-27T15:58:54.481Z,9.92
2022-11-27T16:08:54.453Z,9.68
2022-11-27T16:18:54.434Z,9.50
2022-11-27T16:28:54.509Z,9.42
2022-11-27T16:38:54.767Z,9.39
2022-11-27T16:48:54.568Z,9.37
2022-11-27T16:59:00.906Z,9.37
2022-11-27T17:08:59.646Z,9.39
2022-11-27T17:19:00.793Z,9.42
2022-11-27T17:29:02.445Z,9.46
2022-11-27T17:39:02.681Z,9.53
2022-11-27T17:49:02.588Z,9.60
2022-11-27T17:59:02.846Z,9.66
2022-11-27T18:09:02.558Z,9.69
2022-11-27T18:19:02.667Z,9.71
2022-11-27T18:29:02.699Z,9.64
2022-11-27T18:39:03.047Z,9.44
2022-11-27T18:49:03.774Z,9.19
2022-11-27T18:59:03.647Z,8.98
2022-11-27T19:09:04.212Z,8.90
2022-11-27T19:19:04.841Z,8.88
2022-11-27T19:29:05.306Z,8.89
2022-11-27T19:39:06.097Z,8.90
2022-11-27T19:49:06.823Z,8.92
2022-11-27T19:59:07.292Z,8.95
2022-11-27T20:09:07.824Z,8.99
2022-11-27T20:19:08.461Z,9.03
2022-11-27T20:29:08.686Z,9.07
2022-11-27T20:39:10.433Z,9.07
2022-11-27T20:49:10.786Z,9.05
2022-11-27T20:59:12.013Z,9.05
2022-11-27T21:09:13.468Z,9.10
2022-11-27T21:19:13.916Z,9.16
2022-11-27T21:29:13.932Z,9.15
2022-11-27T21:39:16.244Z,9.07
2022-11-27T21:49:16.877Z,8.98
2022-11-27T21:59:16.895Z,8.91
2022-11-27T22:09:16.909Z,8.87
2022-11-27T22:19:17.169Z,8.85
2022-11-27T22:29:16.965Z,8.83
2022-11-27T22:39:17.997Z,8.70
2022-11-27T22:49:17.929Z,8.43
2022-11-27T22:59:34.473Z,8.17
2022-11-27T23:09:19.896Z,7.95
2022-11-27T23:19:20.633Z,7.79
2022-11-27T23:29:21.000Z,7.69
2022-11-27T23:39:20.911Z,7.61
2022-11-27T23:49:21.123Z,7.56
2022-11-27T23:59:21.038Z,7.54
